»·PEaware :: N901TX KSNA-KSBA

N901TX :: KSNA-KSBA

FLIGHT INFORMATION

Flight Status: Arrived
Operator: Privately registered:
United States
More flights under this callsign
Pilot: Andrew J. (13363)
Aircraft: SOCATA TBM-900
(TBM9)
More flights by this aircraft type
Origin: KSNA John Wayne-Orange Co
United States
Destination: KSBA Santa Barbara Mun
United States
More flights between these airports :: More routes between these airports
Route: +SXC V208 VTU KWANG
File this flight plan on PilotEdge
Remarks:
Altitude:
(Current/Filed)
14,000ft
Speed:
(Current/Filed)
300kts
Departed: 10-Oct-18 07:47 PM
Arrived: 10-Oct-18 08:24 PM
Distance/Time
Traveled:
108nm/0:37
Distance/Time
To Go:
Arrived

Flight Plot

Page will automatically refresh every two minutes.


Map Options




Map Legend


Flown Route
Filed Route
Departure Airport
Arrival Airport
Navaid (VOR, NDB)
Fix

Horizontal Profiles

Position Reports

Time Latitude Longitude Heading Altitude Ground
Speed
10-Oct-18 19:31 33.666912 -117.872520 220 59ft 0kts
10-Oct-18 19:32 33.666912 -117.872520 220 59ft 0kts
10-Oct-18 19:33 33.666912 -117.872520 220 59ft 0kts
10-Oct-18 19:34 33.666912 -117.872520 220 59ft 0kts
10-Oct-18 19:35 33.666912 -117.872520 220 59ft 0kts
10-Oct-18 19:36 33.666912 -117.872521 220 59ft 0kts
10-Oct-18 19:37 33.666912 -117.872521 220 59ft 0kts
10-Oct-18 19:38 33.666912 -117.872521 220 59ft 0kts
10-Oct-18 19:39 33.667038 -117.872925 5 59ft 3kts
10-Oct-18 19:40 33.668083 -117.874347 296 59ft 9kts
10-Oct-18 19:41 33.670232 -117.873786 27 59ft 11kts
10-Oct-18 19:42 33.673107 -117.871941 27 59ft 11kts
10-Oct-18 19:43 33.676108 -117.870202 37 59ft 12kts
10-Oct-18 19:44 33.679373 -117.868061 18 59ft 15kts
10-Oct-18 19:45 33.681941 -117.866024 110 59ft 0kts
10-Oct-18 19:46 33.681941 -117.866024 110 59ft 0kts
10-Oct-18 19:47 33.681941 -117.866024 110 59ft 0kts
10-Oct-18 19:48 33.681417 -117.865186 205 59ft 0kts
10-Oct-18 19:49 33.663516 -117.874704 183 1152ft 123kts
10-Oct-18 19:50 33.628979 -117.878188 186 3996ft 129kts
10-Oct-18 19:51 33.597386 -117.892218 221 6824ft 137kts
10-Oct-18 19:52 33.568792 -117.931489 243 8041ft 194kts
10-Oct-18 19:53 33.542933 -117.997074 244 8005ft 228kts
10-Oct-18 19:54 33.515462 -118.066629 244 8000ft 233kts
10-Oct-18 19:55 33.487636 -118.136926 244 8003ft 234kts
10-Oct-18 19:56 33.455142 -118.218845 244 8012ft 235kts
10-Oct-18 19:57 33.431749 -118.277697 244 8021ft 235kts
10-Oct-18 19:58 33.403637 -118.348290 244 8026ft 235kts
10-Oct-18 19:59 33.381184 -118.420258 284 7996ft 238kts
10-Oct-18 20:00 33.420452 -118.484109 307 8026ft 240kts
10-Oct-18 20:01 33.470468 -118.555684 308 8026ft 240kts
10-Oct-18 20:02 33.509700 -118.603118 314 8026ft 241kts
10-Oct-18 20:03 33.558238 -118.657874 314 8027ft 241kts
10-Oct-18 20:04 33.607069 -118.712907 314 8027ft 241kts
10-Oct-18 20:05 33.655861 -118.767977 314 8019ft 241kts
10-Oct-18 20:06 33.712610 -118.832150 314 8023ft 240kts
10-Oct-18 20:07 33.753257 -118.878174 314 8017ft 241kts
10-Oct-18 20:08 33.802077 -118.933557 314 8014ft 242kts
10-Oct-18 20:09 33.851331 -118.989016 321 8002ft 245kts
10-Oct-18 20:10 33.889290 -119.052760 292 7993ft 242kts
10-Oct-18 20:11 33.932649 -119.113761 316 7992ft 246kts
10-Oct-18 20:12 33.992686 -119.177166 316 7989ft 247kts
10-Oct-18 20:13 34.043644 -119.231221 319 7982ft 239kts
10-Oct-18 20:14 34.093087 -119.283671 318 7980ft 236kts
10-Oct-18 20:15 34.133524 -119.326705 318 7981ft 236kts
10-Oct-18 20:16 34.182849 -119.379253 318 7981ft 236kts
10-Oct-18 20:17 34.234515 -119.434393 318 6491ft 258kts
10-Oct-18 20:18 34.288090 -119.491648 318 4669ft 253kts
10-Oct-18 20:19 34.325786 -119.556960 295 3994ft 227kts
10-Oct-18 20:20 34.351345 -119.623023 295 3603ft 213kts
10-Oct-18 20:21 34.374973 -119.684104 294 2582ft 201kts
10-Oct-18 20:22 34.396590 -119.742614 294 1557ft 160kts
10-Oct-18 20:23 34.412075 -119.782999 294 894ft 105kts
10-Oct-18 20:24 34.423372 -119.810667 298 550ft 86kts
10-Oct-18 20:25 34.427785 -119.841321 265 16ft 62kts
10-Oct-18 20:26 34.428610 -119.845692 98 16ft 7kts
10-Oct-18 20:27 34.429256 -119.843600 62 16ft 11kts
10-Oct-18 20:28 34.431001 -119.838837 71 16ft 18kts
10-Oct-18 20:29 34.432324 -119.835858 341 16ft 3kts
10-Oct-18 20:30 34.432619 -119.835598 67 16ft 0kts
10-Oct-18 20:31 34.432619 -119.835598 67 16ft 0kts
10-Oct-18 20:32 34.432619 -119.835598 67 16ft 0kts

Navigation Log

Ident Type
Flight plan parsing failed, navigation log unavailable